MSC Paola — 9HA2581 — position and weather

sailwx.info

Track history (hours):
 
Tides and Currents Weather Stations Pressure Air Temp Water Temp Dewpoint Dewpoint Depression Visibility Wind Speed Wind Dir Waves Ship Positions

MSC Paola

Last reported at 2014-Dec-17 11:32 UTC. Time now 2014-Dec-21 14:28 UTC.
Position N 01°15' E 104°08'.

Length 243 m; draft 12 m.

Type: Ship (hazmat cat A). MMSI: 248931000.

Date/timePositionNaut miles runAvg speedWind from/ knotsBaromVisibWave heightAir tempDewpointWater temp
2014-Dec-17 11:32N 01°15' E 104°08'1313.8
2014-Dec-17 10:33N 01°13' E 103°54'8 8.1
2014-Dec-17 09:34N 01°14' E 103°47'2 1.5
2014-Dec-17 08:28N 01°16' E 103°46'0 0.0
2014-Dec-17 07:25N 01°16' E 103°46'0 0.0
2014-Dec-17 05:25N 01°16' E 103°46'0 0.0
2014-Dec-17 04:31N 01°16' E 103°46'0 0.0
2014-Dec-17 03:31N 01°16' E 103°46'0 0.0
2014-Dec-17 02:31N 01°16' E 103°46'0 0.0
2014-Dec-17 01:31N 01°16' E 103°46'0 0.0
2014-Dec-17 00:31N 01°16' E 103°46'0 0.0
2014-Dec-16 23:22N 01°16' E 103°46'0 0.0
2014-Dec-16 22:10N 01°16' E 103°46'0 0.0
2014-Dec-16 21:25N 01°16' E 103°46'0 0.0
2014-Dec-16 20:25N 01°16' E 103°46'0 0.0
2014-Dec-16 19:31N 01°16' E 103°46'0 0.0
2014-Dec-16 18:31N 01°16' E 103°46'0 0.0
2014-Dec-16 17:31N 01°16' E 103°46'0 0.0
2014-Dec-16 16:30N 01°16' E 103°46'0 0.0
2014-Dec-16 15:33N 01°16' E 103°46'0 0.0
2014-Dec-16 14:33N 01°16' E 103°46'0 0.0
2014-Dec-16 13:33N 01°16' E 103°46'0 0.0
2014-Dec-16 12:33N 01°16' E 103°46'0 0.0
2014-Dec-16 11:33N 01°16' E 103°46'0 0.0
2014-Dec-16 10:33N 01°16' E 103°46'0 0.0
2014-Dec-16 09:33N 01°16' E 103°46'0 0.0
2014-Dec-16 08:30N 01°16' E 103°46'0 0.0
2014-Dec-16 07:33N 01°16' E 103°46'0 0.0
2014-Dec-16 06:33N 01°16' E 103°46'0 0.0
2014-Dec-16 05:27N 01°16' E 103°46'0 0.0
2014-Dec-16 03:27N 01°16' E 103°46'0 0.0
2014-Dec-16 02:30N 01°16' E 103°46'0 0.0
2014-Dec-16 01:06N 01°16' E 103°46'0 0.0
2014-Dec-16 00:06N 01°16' E 103°46'0 0.0
2014-Dec-15 23:33N 01°16' E 103°46'0 0.0
2014-Dec-15 22:30N 01°16' E 103°46'0 0.0
2014-Dec-15 21:33N 01°16' E 103°46'0 0.0
2014-Dec-15 20:33N 01°16' E 103°46'0 0.1
2014-Dec-15 19:33N 01°16' E 103°46'0 0.1
2014-Dec-15 18:33N 01°16' E 103°46'0 0.0
2014-Dec-15 17:33N 01°16' E 103°46'0 0.0
2014-Dec-15 15:33N 01°16' E 103°46'4 4.0
2014-Dec-15 14:33N 01°13' E 103°49'10 8.7
2014-Dec-15 13:28N 01°15' E 103°58'9 8.4
2014-Dec-15 12:26N 01°17' E 104°06'7 8.4
2014-Dec-15 11:33N 01°18' E 104°14'  
Track history (hours):
 
Tides and Currents Weather Stations Pressure Air Temp Water Temp Dewpoint Dewpoint Depression Visibility Wind Speed Wind Dir Waves Ship Positions

MSC Paola

Last reported at 2014-Dec-17 11:32 UTC. Time now 2014-Dec-21 14:28 UTC.
Position N 01°15' E 104°08'.

Length 243 m; draft 12 m.

Type: Ship (hazmat cat A). MMSI: 248931000.

Date/timePositionNaut miles runAvg speedWind from/ knotsBaromVisibWave heightAir tempDewpointWater temp
2014-Dec-17 11:32N 01°15' E 104°08'1313.8
2014-Dec-17 10:33N 01°13' E 103°54'8 8.1
2014-Dec-17 09:34N 01°14' E 103°47'2 1.5
2014-Dec-17 08:28N 01°16' E 103°46'0 0.0
2014-Dec-17 07:25N 01°16' E 103°46'0 0.0
2014-Dec-17 05:25N 01°16' E 103°46'0 0.0
2014-Dec-17 04:31N 01°16' E 103°46'0 0.0
2014-Dec-17 03:31N 01°16' E 103°46'0 0.0
2014-Dec-17 02:31N 01°16' E 103°46'0 0.0
2014-Dec-17 01:31N 01°16' E 103°46'0 0.0
2014-Dec-17 00:31N 01°16' E 103°46'0 0.0
2014-Dec-16 23:22N 01°16' E 103°46'0 0.0
2014-Dec-16 22:10N 01°16' E 103°46'0 0.0
2014-Dec-16 21:25N 01°16' E 103°46'0 0.0
2014-Dec-16 20:25N 01°16' E 103°46'0 0.0
2014-Dec-16 19:31N 01°16' E 103°46'0 0.0
2014-Dec-16 18:31N 01°16' E 103°46'0 0.0
2014-Dec-16 17:31N 01°16' E 103°46'0 0.0
2014-Dec-16 16:30N 01°16' E 103°46'0 0.0
2014-Dec-16 15:33N 01°16' E 103°46'0 0.0
2014-Dec-16 14:33N 01°16' E 103°46'0 0.0
2014-Dec-16 13:33N 01°16' E 103°46'0 0.0
2014-Dec-16 12:33N 01°16' E 103°46'0 0.0
2014-Dec-16 11:33N 01°16' E 103°46'0 0.0
2014-Dec-16 10:33N 01°16' E 103°46'0 0.0
2014-Dec-16 09:33N 01°16' E 103°46'0 0.0
2014-Dec-16 08:30N 01°16' E 103°46'0 0.0
2014-Dec-16 07:33N 01°16' E 103°46'0 0.0
2014-Dec-16 06:33N 01°16' E 103°46'0 0.0
2014-Dec-16 05:27N 01°16' E 103°46'0 0.0
2014-Dec-16 03:27N 01°16' E 103°46'0 0.0
2014-Dec-16 02:30N 01°16' E 103°46'0 0.0
2014-Dec-16 01:06N 01°16' E 103°46'0 0.0
2014-Dec-16 00:06N 01°16' E 103°46'0 0.0
2014-Dec-15 23:33N 01°16' E 103°46'0 0.0
2014-Dec-15 22:30N 01°16' E 103°46'0 0.0
2014-Dec-15 21:33N 01°16' E 103°46'0 0.0
2014-Dec-15 20:33N 01°16' E 103°46'0 0.1
2014-Dec-15 19:33N 01°16' E 103°46'0 0.1
2014-Dec-15 18:33N 01°16' E 103°46'0 0.0
2014-Dec-15 17:33N 01°16' E 103°46'0 0.0
2014-Dec-15 15:33N 01°16' E 103°46'4 4.0
2014-Dec-15 14:33N 01°13' E 103°49'10 8.7
2014-Dec-15 13:28N 01°15' E 103°58'9 8.4
2014-Dec-15 12:26N 01°17' E 104°06'7 8.4
2014-Dec-15 11:33N 01°18' E 104°14'  

Dump ship's entire track history